Preview of NWS' New Version of Forecast
This preview is not operational and should not be used for support decisions.

Terminal Aerodrome Forecast (TAF)

Issued by National Weather Service (NWS)

                            
000
FTUS46 KMTR 230916 AAA
TAFSTS
TAF AMD
KSTS 230916Z 2309/2406 00000KT P6SM SKC
     FM231900 19005KT P6SM SKC
     FM232100 19010KT P6SM SKC
     FM240400 19005KT P6SM SCT008=